createdAt,value
2016-05-07T00:00:24.640Z,0
2016-05-07T00:01:24.626Z,0
2016-05-07T00:02:24.614Z,0
2016-05-07T00:03:24.773Z,0
2016-05-07T00:04:24.759Z,0
2016-05-07T00:05:24.762Z,0
2016-05-07T00:06:24.578Z,0
2016-05-07T00:07:24.721Z,0
2016-05-07T00:08:24.708Z,0
2016-05-07T00:09:24.726Z,0
2016-05-07T00:10:24.525Z,0
2016-05-07T00:11:24.529Z,0
2016-05-07T00:12:24.500Z,0
2016-05-07T00:13:24.643Z,0
2016-05-07T00:14:24.647Z,0
2016-05-07T00:15:24.477Z,0
2016-05-07T00:16:24.619Z,0
2016-05-07T00:17:24.607Z,0
2016-05-07T00:18:24.594Z,0
2016-05-07T00:19:24.441Z,0
2016-05-07T00:20:24.428Z,0
2016-05-07T00:21:24.415Z,0
2016-05-07T00:22:24.558Z,0
2016-05-07T00:23:24.263Z,0
2016-05-07T00:24:24.532Z,0
2016-05-07T00:25:24.519Z,0
2016-05-07T00:26:24.351Z,0
2016-05-07T00:27:25.524Z,0
2016-05-07T00:28:24.481Z,0
2016-05-07T00:29:24.467Z,0
2016-05-07T00:30:24.471Z,0
2016-05-07T00:31:24.145Z,0
2016-05-07T00:32:24.445Z,0
2016-05-07T00:33:24.431Z,0
2016-05-07T00:34:24.465Z,0
2016-05-07T00:35:24.406Z,0
2016-05-07T00:36:24.392Z,0
2016-05-07T00:37:24.224Z,0
2016-05-07T00:38:24.367Z,0
2016-05-07T00:39:24.354Z,0
2016-05-07T00:40:24.356Z,0
2016-05-07T00:41:24.344Z,0
2016-05-07T00:42:24.643Z,0
2016-05-07T00:43:24.161Z,0
2016-05-07T00:44:24.320Z,0
2016-05-07T00:45:24.308Z,0
2016-05-07T00:46:24.279Z,0
2016-05-07T00:47:24.110Z,0
2016-05-07T00:48:24.269Z,0
2016-05-07T00:49:24.255Z,0
2016-05-07T00:50:24.227Z,0
2016-05-07T00:51:24.246Z,0
2016-05-07T00:52:24.045Z,0
2016-05-07T00:53:24.032Z,0
2016-05-07T00:54:24.035Z,0
2016-05-07T00:55:23.882Z,0
2016-05-07T00:56:23.853Z,0
2016-05-07T00:57:24.651Z,0
2016-05-07T00:58:23.983Z,0
2016-05-07T00:59:24.142Z,0
2016-05-07T01:00:23.957Z,0
2016-05-07T01:01:24.100Z,0
2016-05-07T01:02:24.103Z,0
2016-05-07T01:03:23.950Z,0
2016-05-07T01:04:23.921Z,0
2016-05-07T01:05:24.049Z,0
2016-05-07T01:06:24.051Z,0
2016-05-07T01:07:24.039Z,0
2016-05-07T01:08:24.041Z,0
2016-05-07T01:09:24.012Z,0
2016-05-07T01:10:23.700Z,0
2016-05-07T01:11:23.987Z,0
2016-05-07T01:12:23.974Z,0
2016-05-07T01:13:23.961Z,0
2016-05-07T01:14:23.789Z,0
2016-05-07T01:15:23.620Z,0
2016-05-07T01:16:23.922Z,0
2016-05-07T01:17:23.925Z,0
2016-05-07T01:18:23.738Z,0
2016-05-07T01:19:23.896Z,0
2016-05-07T01:20:23.711Z,0
2016-05-07T01:21:23.870Z,0
2016-05-07T01:22:23.858Z,0
2016-05-07T01:23:23.860Z,0
2016-05-07T01:24:23.832Z,0
2016-05-07T01:25:23.818Z,0
2016-05-07T01:26:23.806Z,0
2016-05-07T01:27:23.807Z,0
2016-05-07T01:28:23.780Z,0
2016-05-07T01:29:23.768Z,0
2016-05-07T01:30:23.754Z,0
2016-05-07T01:31:23.756Z,0
2016-05-07T01:32:23.729Z,0
2016-05-07T01:33:23.731Z,0
2016-05-07T01:34:23.562Z,0
2016-05-07T01:35:23.534Z,0
2016-05-07T01:36:23.536Z,0
2016-05-07T01:37:23.523Z,0
2016-05-07T01:38:23.650Z,0
2016-05-07T01:39:23.653Z,0
2016-05-07T01:40:23.640Z,0
2016-05-07T01:41:23.668Z,0
2016-05-07T01:42:23.470Z,0
2016-05-07T01:43:23.614Z,0
2016-05-07T01:44:24.332Z,0
2016-05-07T01:45:23.569Z,0
2016-05-07T01:46:23.571Z,0
2016-05-07T01:47:23.387Z,0
2016-05-07T01:48:23.390Z,0
2016-05-07T01:49:23.532Z,0
2016-05-07T01:50:23.519Z,0
2016-05-07T01:51:23.179Z,0
2016-05-07T01:52:23.494Z,0
2016-05-07T01:53:23.511Z,0
2016-05-07T01:54:23.468Z,0
2016-05-07T01:55:23.298Z,0
2016-05-07T01:56:23.286Z,0
2016-05-07T01:57:24.931Z,0
2016-05-07T01:58:23.431Z,0
2016-05-07T01:59:23.247Z,0
2016-05-07T02:00:23.250Z,0
2016-05-07T02:01:23.393Z,0
2016-05-07T02:02:23.052Z,0
2016-05-07T02:03:23.195Z,0
2016-05-07T02:04:23.338Z,0
2016-05-07T02:05:23.341Z,0
2016-05-07T02:06:23.328Z,0
2016-05-07T02:07:23.316Z,0
2016-05-07T02:08:23.302Z,0
2016-05-07T02:09:23.290Z,0
2016-05-07T02:10:23.292Z,0
2016-05-07T02:11:23.263Z,0
2016-05-07T02:12:23.110Z,0
2016-05-07T02:13:23.238Z,0
2016-05-07T02:14:23.068Z,0
2016-05-07T02:15:23.056Z,0
2016-05-07T02:16:23.229Z,0
2016-05-07T02:17:23.187Z,0
2016-05-07T02:18:23.173Z,0
2016-05-07T02:19:23.176Z,0
2016-05-07T02:20:23.162Z,0
2016-05-07T02:21:22.978Z,0
2016-05-07T02:22:22.964Z,0
2016-05-07T02:23:23.140Z,0
2016-05-07T02:24:23.098Z,0
2016-05-07T02:25:22.773Z,0
2016-05-07T02:26:22.917Z,0
2016-05-07T02:27:24.106Z,0
2016-05-07T02:28:22.890Z,0
2016-05-07T02:29:23.034Z,0
2016-05-07T02:30:23.021Z,0
2016-05-07T02:31:23.023Z,0
2016-05-07T02:32:23.041Z,0
2016-05-07T02:33:22.981Z,0
2016-05-07T02:34:23.173Z,0
2016-05-07T02:35:22.956Z,0
2016-05-07T02:36:22.944Z,0
2016-05-07T02:37:22.617Z,0
2016-05-07T02:38:22.916Z,0
2016-05-07T02:39:22.920Z,0
2016-05-07T02:40:22.892Z,0
2016-05-07T02:41:22.894Z,0
2016-05-07T02:42:24.397Z,0
2016-05-07T02:43:22.852Z,0
2016-05-07T02:44:22.855Z,0
2016-05-07T02:45:22.843Z,0
2016-05-07T02:46:22.830Z,0
2016-05-07T02:47:22.660Z,0
2016-05-07T02:48:22.804Z,0
2016-05-07T02:49:22.790Z,0
2016-05-07T02:50:22.777Z,0
2016-05-07T02:51:22.780Z,0
2016-05-07T02:52:22.596Z,0
2016-05-07T02:53:22.739Z,0
2016-05-07T02:54:22.726Z,0
2016-05-07T02:55:22.729Z,0
2016-05-07T02:56:22.700Z,0
2016-05-07T02:57:22.234Z,0
2016-05-07T02:58:22.737Z,0
2016-05-07T02:59:22.505Z,0
2016-05-07T03:00:22.648Z,0
2016-05-07T03:01:22.479Z,0
2016-05-07T03:02:22.622Z,0
2016-05-07T03:03:22.609Z,0
2016-05-07T03:04:22.456Z,0
2016-05-07T03:05:22.584Z,0
2016-05-07T03:06:22.570Z,0
2016-05-07T03:07:22.402Z,0
2016-05-07T03:08:22.544Z,0
2016-05-07T03:09:22.532Z,0
2016-05-07T03:10:22.519Z,0
2016-05-07T03:11:22.506Z,0
2016-05-07T03:12:22.618Z,0
2016-05-07T03:13:22.496Z,0
2016-05-07T03:14:22.482Z,0
2016-05-07T03:15:22.455Z,0
2016-05-07T03:16:22.441Z,4
2016-05-07T03:17:22.429Z,4
2016-05-07T03:18:22.259Z,0
2016-05-07T03:19:22.246Z,0
2016-05-07T03:20:22.232Z,4
2016-05-07T03:21:22.221Z,4
2016-05-07T03:22:22.379Z,4
2016-05-07T03:23:22.351Z,4
2016-05-07T03:24:22.337Z,4
2016-05-07T03:25:22.326Z,8
2016-05-07T03:26:22.312Z,8
2016-05-07T03:27:22.627Z,8
2016-05-07T03:28:22.286Z,8
2016-05-07T03:29:22.273Z,12
2016-05-07T03:30:22.275Z,12
2016-05-07T03:31:22.248Z,16
2016-05-07T03:32:22.250Z,16
2016-05-07T03:33:22.081Z,20
2016-05-07T03:34:22.067Z,24
2016-05-07T03:35:22.212Z,28
2016-05-07T03:36:22.026Z,28
2016-05-07T03:37:22.170Z,36
2016-05-07T03:38:21.860Z,40
2016-05-07T03:39:21.831Z,44
2016-05-07T03:40:22.130Z,48
2016-05-07T03:41:22.134Z,56
2016-05-07T03:42:22.496Z,64
2016-05-07T03:43:22.107Z,72
2016-05-07T03:44:22.079Z,80
2016-05-07T03:45:21.925Z,88
2016-05-07T03:46:22.053Z,96
2016-05-07T03:47:22.041Z,104
2016-05-07T03:48:21.871Z,120
2016-05-07T03:49:22.030Z,128
2016-05-07T03:50:22.018Z,140
2016-05-07T03:51:21.832Z,152
2016-05-07T03:52:21.991Z,168
2016-05-07T03:53:21.978Z,180
2016-05-07T03:54:21.949Z,196
2016-05-07T03:55:21.952Z,212
2016-05-07T03:56:21.626Z,228
2016-05-07T03:57:21.708Z,244
2016-05-07T03:58:21.914Z,260
2016-05-07T03:59:21.901Z,276
2016-05-07T04:00:21.872Z,296
2016-05-07T04:01:21.859Z,312
2016-05-07T04:02:21.862Z,332
2016-05-07T04:03:21.677Z,356
2016-05-07T04:04:21.680Z,376
2016-05-07T04:05:21.808Z,392
2016-05-07T04:06:21.795Z,416
2016-05-07T04:07:21.625Z,436
2016-05-07T04:08:21.784Z,460
2016-05-07T04:09:21.772Z,480
2016-05-07T04:10:21.586Z,500
2016-05-07T04:11:21.574Z,524
2016-05-07T04:12:21.858Z,548
2016-05-07T04:13:21.704Z,572
2016-05-07T04:14:21.691Z,592
2016-05-07T04:15:21.522Z,616
2016-05-07T04:16:21.696Z,640
2016-05-07T04:17:21.668Z,664
2016-05-07T04:18:21.639Z,688
2016-05-07T04:19:21.642Z,708
2016-05-07T04:20:21.613Z,732
2016-05-07T04:21:21.444Z,752
2016-05-07T04:22:21.603Z,776
2016-05-07T04:23:21.434Z,800
2016-05-07T04:24:21.577Z,824
2016-05-07T04:25:21.408Z,844
2016-05-07T04:26:21.551Z,868
2016-05-07T04:27:23.117Z,888
2016-05-07T04:28:21.526Z,912
2016-05-07T04:29:21.528Z,936
2016-05-07T04:30:21.484Z,956
2016-05-07T04:31:21.471Z,980
2016-05-07T04:32:21.473Z,1000
2016-05-07T04:33:21.461Z,1020
2016-05-07T04:34:21.636Z,1044
2016-05-07T04:35:21.419Z,1064
2016-05-07T04:36:21.267Z,1084
2016-05-07T04:37:21.394Z,1104
2016-05-07T04:38:21.083Z,1124
2016-05-07T04:39:21.212Z,1144
2016-05-07T04:40:21.355Z,1164
2016-05-07T04:41:21.185Z,1184
2016-05-07T04:42:21.485Z,1204
2016-05-07T04:43:21.161Z,1224
2016-05-07T04:44:21.319Z,1244
2016-05-07T04:45:21.290Z,1260
2016-05-07T04:46:30.436Z,1280
2016-05-07T04:47:21.264Z,1296
2016-05-07T04:48:21.252Z,1316
2016-05-07T04:49:21.238Z,1336
2016-05-07T04:50:21.225Z,1352
2016-05-07T04:51:21.228Z,1368
2016-05-07T04:52:21.199Z,1384
2016-05-07T04:53:21.187Z,1400
2016-05-07T04:54:21.032Z,1412
2016-05-07T04:55:21.004Z,1432
2016-05-07T04:56:21.007Z,1452
2016-05-07T04:57:21.166Z,1472
2016-05-07T04:58:21.106Z,1492
2016-05-07T04:59:21.109Z,1508
2016-05-07T05:00:20.940Z,1528
2016-05-07T05:01:21.084Z,1544
2016-05-07T05:02:21.070Z,1564
2016-05-07T05:03:21.057Z,1580
2016-05-07T05:04:21.044Z,1596
2016-05-07T05:05:21.032Z,1616
2016-05-07T05:06:21.034Z,1632
2016-05-07T05:07:21.020Z,1648
2016-05-07T05:08:20.836Z,1668
2016-05-07T05:09:20.855Z,1684
2016-05-07T05:10:20.983Z,1700
2016-05-07T05:11:20.970Z,1712
2016-05-07T05:12:21.050Z,1728
2016-05-07T05:13:20.959Z,1748
2016-05-07T05:14:20.914Z,1760
2016-05-07T05:15:20.761Z,1776
2016-05-07T05:16:20.905Z,1792
2016-05-07T05:17:20.892Z,1804
2016-05-07T05:18:20.722Z,1820
2016-05-07T05:19:20.866Z,1840
2016-05-07T05:20:20.853Z,1856
2016-05-07T05:21:20.683Z,1872
2016-05-07T05:22:20.687Z,1888
2016-05-07T05:23:20.814Z,1904
2016-05-07T05:24:20.801Z,1920
2016-05-07T05:25:20.788Z,1936
2016-05-07T05:26:20.776Z,1952
2016-05-07T05:27:20.778Z,1968
2016-05-07T05:28:20.749Z,1984
2016-05-07T05:29:20.596Z,1996
2016-05-07T05:30:20.724Z,2012
2016-05-07T05:31:20.726Z,2032
2016-05-07T05:32:20.542Z,2048
2016-05-07T05:33:20.529Z,2060
2016-05-07T05:34:20.672Z,2080
2016-05-07T05:35:20.675Z,2096
2016-05-07T05:36:20.662Z,2108
2016-05-07T05:37:20.492Z,2120
2016-05-07T05:38:20.636Z,2132
2016-05-07T05:39:20.623Z,2148
2016-05-07T05:40:20.656Z,2160
2016-05-07T05:41:20.598Z,2168
2016-05-07T05:42:20.912Z,2180
2016-05-07T05:43:20.571Z,2192
2016-05-07T05:44:20.559Z,2204
2016-05-07T05:45:20.561Z,2216
2016-05-07T05:46:20.548Z,2228
2016-05-07T05:47:20.519Z,2236
2016-05-07T05:48:20.506Z,2252
2016-05-07T05:49:20.494Z,2264
2016-05-07T05:50:20.355Z,2280
2016-05-07T05:51:20.327Z,2292
2016-05-07T05:52:20.471Z,2316
2016-05-07T05:53:20.458Z,2336
2016-05-07T05:54:20.444Z,2352
2016-05-07T05:55:20.432Z,2372
2016-05-07T05:56:20.419Z,2392
2016-05-07T05:57:20.530Z,2408
2016-05-07T05:58:20.252Z,2424
2016-05-07T05:59:20.396Z,2440
2016-05-07T06:00:20.368Z,2456
2016-05-07T06:01:20.370Z,2472
2016-05-07T06:02:20.404Z,2488
2016-05-07T06:03:20.187Z,2500
2016-05-07T06:04:19.862Z,2516
2016-05-07T06:05:20.318Z,2528
2016-05-07T06:06:20.305Z,2544
2016-05-07T06:07:20.307Z,2556
2016-05-07T06:08:20.279Z,2564
2016-05-07T06:09:20.282Z,2576
2016-05-07T06:10:20.270Z,2592
2016-05-07T06:11:20.100Z,2608
2016-05-07T06:12:20.524Z,2624
2016-05-07T06:13:20.089Z,2640
2016-05-07T06:14:20.076Z,2652
2016-05-07T06:15:20.204Z,2664
2016-05-07T06:16:20.192Z,2684
2016-05-07T06:17:20.178Z,2700
2016-05-07T06:18:20.166Z,2716
2016-05-07T06:19:20.169Z,2732
2016-05-07T06:20:19.984Z,2744
2016-05-07T06:21:20.127Z,2760
2016-05-07T06:22:19.958Z,2780
2016-05-07T06:23:20.366Z,2800
2016-05-07T06:24:21.541Z,2820
2016-05-07T06:25:20.091Z,2832
2016-05-07T06:26:20.093Z,2852
2016-05-07T06:27:19.924Z,2860
2016-05-07T06:28:20.068Z,2872
2016-05-07T06:29:20.054Z,2888
2016-05-07T06:30:20.026Z,2904
2016-05-07T06:31:20.028Z,2932
2016-05-07T06:32:20.015Z,2948
2016-05-07T06:33:19.707Z,2968
2016-05-07T06:34:20.209Z,2988
2016-05-07T06:35:19.992Z,3004
2016-05-07T06:36:19.980Z,3020
2016-05-07T06:37:19.967Z,3032
2016-05-07T06:38:19.954Z,3048
2016-05-07T06:39:20.003Z,3068
2016-05-07T06:40:19.818Z,3088
2016-05-07T06:41:19.931Z,3104
2016-05-07T06:42:20.276Z,3124
2016-05-07T06:43:19.889Z,3140
2016-05-07T06:44:19.922Z,3160
2016-05-07T06:45:19.894Z,3184
2016-05-07T06:46:19.881Z,3212
2016-05-07T06:47:19.869Z,3232
2016-05-07T06:48:19.856Z,3244
2016-05-07T06:49:19.842Z,3264
2016-05-07T06:50:19.845Z,3284
2016-05-07T06:51:19.817Z,3300
2016-05-07T06:52:19.491Z,3316
2016-05-07T06:53:19.791Z,3336
2016-05-07T06:54:19.778Z,3352
2016-05-07T06:55:19.780Z,3368
2016-05-07T06:56:19.768Z,3384
2016-05-07T06:57:19.691Z,3396
2016-05-07T06:58:19.758Z,3412
2016-05-07T06:59:19.744Z,3432
2016-05-07T07:00:19.731Z,3444
2016-05-07T07:01:19.562Z,3472
2016-05-07T07:02:19.721Z,3492
2016-05-07T07:03:19.708Z,3516
2016-05-07T07:04:19.696Z,3528
2016-05-07T07:05:19.682Z,3544
2016-05-07T07:06:19.513Z,3572
2016-05-07T07:07:19.672Z,3596
2016-05-07T07:08:19.660Z,3616
2016-05-07T07:09:19.646Z,3640
2016-05-07T07:10:19.476Z,3660
2016-05-07T07:11:19.621Z,3684
2016-05-07T07:12:19.545Z,3712
2016-05-07T07:13:19.610Z,3736
2016-05-07T07:14:19.597Z,3760
2016-05-07T07:15:19.428Z,3768
2016-05-07T07:16:19.571Z,3788
2016-05-07T07:17:19.575Z,3808
2016-05-07T07:18:19.578Z,3832
2016-05-07T07:19:19.548Z,3852
2016-05-07T07:20:19.550Z,3880
2016-05-07T07:21:19.522Z,3908
2016-05-07T07:22:19.556Z,3932
2016-05-07T07:23:19.528Z,3972
2016-05-07T07:24:19.515Z,4004
2016-05-07T07:25:19.486Z,4040
2016-05-07T07:26:19.333Z,9080
2016-05-07T07:27:19.460Z,11952
2016-05-07T07:28:19.479Z,9600
2016-05-07T07:29:19.481Z,10916
2016-05-07T07:30:19.313Z,12492
2016-05-07T07:31:19.456Z,13680
2016-05-07T07:32:19.443Z,13840
2016-05-07T07:33:19.429Z,12808
2016-05-07T07:34:19.448Z,8600
2016-05-07T07:35:19.435Z,6868
2016-05-07T07:36:19.407Z,7552
2016-05-07T07:37:19.410Z,8416
2016-05-07T07:38:19.396Z,9664
2016-05-07T07:39:19.399Z,10584
2016-05-07T07:40:19.386Z,9068
2016-05-07T07:41:19.389Z,4796
2016-05-07T07:42:19.376Z,4648
2016-05-07T07:43:19.363Z,4732
2016-05-07T07:44:19.209Z,4988
2016-05-07T07:45:19.337Z,5532
2016-05-07T07:46:19.355Z,6036
2016-05-07T07:47:19.358Z,5076
2016-05-07T07:48:19.329Z,4884
2016-05-07T07:49:19.536Z,4916
2016-05-07T07:50:19.303Z,4940
2016-05-07T07:51:19.306Z,4964
2016-05-07T07:52:19.293Z,5000
2016-05-07T07:53:19.125Z,5060
2016-05-07T07:54:19.111Z,5100
2016-05-07T07:55:19.114Z,5120
2016-05-07T07:56:19.258Z,5152
2016-05-07T07:57:20.713Z,5180
2016-05-07T07:58:19.091Z,5208
2016-05-07T07:59:19.108Z,5236
2016-05-07T08:00:19.236Z,5272
2016-05-07T08:01:19.239Z,5320
2016-05-07T08:02:19.227Z,5372
2016-05-07T08:03:19.057Z,5412
2016-05-07T08:04:19.216Z,5448
2016-05-07T08:05:19.046Z,5496
2016-05-07T08:06:19.207Z,5552
2016-05-07T08:07:19.193Z,5612
2016-05-07T08:08:19.024Z,9676
2016-05-07T08:09:19.026Z,34272
2016-05-07T08:10:19.170Z,49152
2016-05-07T08:11:19.173Z,45856
2016-05-07T08:12:19.440Z,44544
2016-05-07T08:13:19.006Z,44480
2016-05-07T08:14:19.009Z,45568
2016-05-07T08:15:18.995Z,47680
2016-05-07T08:16:19.155Z,50784
2016-05-07T08:17:19.142Z,51712
2016-05-07T08:18:19.144Z,51136
2016-05-07T08:19:19.147Z,49056
2016-05-07T08:20:19.134Z,47968
2016-05-07T08:21:18.981Z,48512
2016-05-07T08:22:19.140Z,48352
2016-05-07T08:23:19.142Z,48640
2016-05-07T08:24:19.129Z,48352
2016-05-07T08:25:19.116Z,47232
2016-05-07T08:26:19.136Z,46208
2016-05-07T08:27:19.747Z,44800
2016-05-07T08:28:18.968Z,46080
2016-05-07T08:29:18.976Z,49984
2016-05-07T08:30:19.177Z,54560
2016-05-07T08:31:19.240Z,57952
2016-05-07T08:32:19.269Z,58272
2016-05-07T08:33:19.315Z,56896
2016-05-07T08:34:19.560Z,54080
2016-05-07T08:35:19.375Z,49920
2016-05-07T08:36:19.394Z,46720
2016-05-07T08:37:19.428Z,45792
2016-05-07T08:38:19.491Z,49568
2016-05-07T08:39:19.446Z,56256
2016-05-07T08:40:19.283Z,61312
2016-05-07T08:41:19.447Z,65344
2016-05-07T08:42:19.909Z,66048
2016-05-07T08:43:19.324Z,64416
2016-05-07T08:44:19.472Z,59392
2016-05-07T08:45:19.477Z,54336
2016-05-07T08:46:19.482Z,52576
2016-05-07T08:47:19.502Z,56224
2016-05-07T08:48:19.490Z,60384
2016-05-07T08:49:19.496Z,52704
2016-05-07T08:50:19.515Z,55648
2016-05-07T08:51:19.502Z,48096
2016-05-07T08:52:19.506Z,43232
2016-05-07T08:53:19.525Z,32288
2016-05-07T08:54:19.528Z,41824
2016-05-07T08:55:19.531Z,46496
2016-05-07T08:56:19.363Z,34976
2016-05-07T08:57:19.538Z,42336
2016-05-07T08:58:19.385Z,59296
2016-05-07T08:59:19.544Z,67520
2016-05-07T09:00:19.374Z,61216
2016-05-07T09:01:19.393Z,52000
2016-05-07T09:02:19.396Z,34912
2016-05-07T09:03:19.538Z,30112
2016-05-07T09:04:19.558Z,28256
2016-05-07T09:05:19.544Z,32896
2016-05-07T09:06:19.563Z,39008
2016-05-07T09:07:19.581Z,40096
2016-05-07T09:08:19.412Z,30784
2016-05-07T09:09:19.571Z,33408
2016-05-07T09:10:19.558Z,40192
2016-05-07T09:11:19.560Z,39360
2016-05-07T09:12:19.954Z,35872
2016-05-07T09:13:19.565Z,21120
2016-05-07T09:14:19.413Z,13812
2016-05-07T09:15:19.259Z,20608
2016-05-07T09:16:19.590Z,35264
2016-05-07T09:17:19.576Z,50912
2016-05-07T09:18:19.564Z,43616
2016-05-07T09:19:19.426Z,19648
2016-05-07T09:20:19.585Z,18592
2016-05-07T09:21:19.587Z,26944
2016-05-07T09:22:19.417Z,53696
2016-05-07T09:23:19.578Z,40256
2016-05-07T09:24:19.580Z,32160
2016-05-07T09:25:19.583Z,19456
2016-05-07T09:26:19.586Z,20992
2016-05-07T09:27:20.494Z,29376
2016-05-07T09:28:19.591Z,33600
2016-05-07T09:29:19.578Z,44448
2016-05-07T09:30:19.439Z,42656
2016-05-07T09:31:19.599Z,45504
2016-05-07T09:32:19.444Z,50912
2016-05-07T09:33:19.432Z,47712
2016-05-07T09:34:19.591Z,50048
2016-05-07T09:35:19.594Z,29952
2016-05-07T09:36:19.597Z,21216
2016-05-07T09:37:19.615Z,24608
2016-05-07T09:38:19.602Z,21376
2016-05-07T09:39:19.448Z,23296
2016-05-07T09:40:19.607Z,30752
2016-05-07T09:41:19.610Z,29312
2016-05-07T09:42:19.472Z,11460
2016-05-07T09:43:19.443Z,13164
2016-05-07T09:44:19.602Z,14576
2016-05-07T09:45:19.605Z,12904
2016-05-07T09:46:19.452Z,15724
2016-05-07T09:47:19.470Z,12484
2016-05-07T09:48:19.613Z,19712
2016-05-07T09:49:19.615Z,23680
2016-05-07T09:50:19.634Z,45408
2016-05-07T09:51:19.450Z,43200
2016-05-07T09:52:19.453Z,38336
2016-05-07T09:53:19.611Z,36256
2016-05-07T09:54:19.614Z,40992
2016-05-07T09:55:19.600Z,29696
2016-05-07T09:56:19.448Z,20416
2016-05-07T09:57:20.216Z,27712
2016-05-07T09:58:19.609Z,16860
2016-05-07T09:59:19.611Z,9708
2016-05-07T10:00:19.442Z,17764
2016-05-07T10:01:19.617Z,27680
2016-05-07T10:02:19.448Z,22272
2016-05-07T10:03:19.294Z,46976
2016-05-07T10:04:19.453Z,54624
2016-05-07T10:05:19.613Z,42400
2016-05-07T10:06:19.615Z,36992
2016-05-07T10:07:19.602Z,43744
2016-05-07T10:08:19.464Z,41536
2016-05-07T10:09:19.623Z,55808
2016-05-07T10:10:19.626Z,50144
2016-05-07T10:11:19.613Z,54272
2016-05-07T10:12:19.537Z,58176
2016-05-07T10:13:19.618Z,67584
2016-05-07T10:14:19.465Z,54336
2016-05-07T10:15:19.623Z,59648
2016-05-07T10:16:19.642Z,78016
2016-05-07T10:17:19.629Z,88384
2016-05-07T10:18:19.632Z,94656
2016-05-07T10:19:19.634Z,96448
2016-05-07T10:20:19.481Z,94016
2016-05-07T10:21:19.484Z,89920
2016-05-07T10:22:19.642Z,83424
2016-05-07T10:23:19.660Z,79360
2016-05-07T10:24:19.647Z,77952
2016-05-07T10:25:19.651Z,79744
2016-05-07T10:26:19.512Z,84576
2016-05-07T10:27:19.624Z,88736
2016-05-07T10:28:19.685Z,91968
2016-05-07T10:29:19.515Z,92576
2016-05-07T10:30:19.674Z,87296
2016-05-07T10:31:19.678Z,87872
2016-05-07T10:32:19.695Z,83744
2016-05-07T10:33:19.698Z,81312
2016-05-07T10:34:19.888Z,81664
2016-05-07T10:35:19.704Z,84512
2016-05-07T10:36:19.550Z,88736
2016-05-07T10:37:19.708Z,93056
2016-05-07T10:38:19.712Z,96672
2016-05-07T10:39:19.714Z,95840
2016-05-07T10:40:19.732Z,92224
2016-05-07T10:41:19.579Z,89664
2016-05-07T10:42:19.754Z,89600
2016-05-07T10:43:19.757Z,91200
2016-05-07T10:44:19.743Z,92064
2016-05-07T10:45:19.590Z,97184
2016-05-07T10:46:19.749Z,102656
2016-05-07T10:47:19.767Z,104288
2016-05-07T10:48:19.770Z,102176
2016-05-07T10:49:19.788Z,100768
2016-05-07T10:50:19.619Z,97344
2016-05-07T10:51:19.778Z,93568
2016-05-07T10:52:19.812Z,89888
2016-05-07T10:53:19.799Z,87488
2016-05-07T10:54:19.801Z,87904
2016-05-07T10:55:20.023Z,88352
2016-05-07T10:56:19.666Z,70560
2016-05-07T10:57:19.935Z,86272
2016-05-07T10:58:19.843Z,82688
2016-05-07T10:59:19.814Z,84160
2016-05-07T11:00:19.849Z,79008
2016-05-07T11:01:19.851Z,79104
2016-05-07T11:02:19.853Z,82784
2016-05-07T11:03:19.872Z,84576
2016-05-07T11:04:19.704Z,86176
2016-05-07T11:05:19.878Z,89152
2016-05-07T11:06:19.880Z,90048
2016-05-07T11:07:19.884Z,89120
2016-05-07T11:08:19.886Z,86880
2016-05-07T11:09:19.888Z,86912
2016-05-07T11:10:19.891Z,84224
2016-05-07T11:11:19.925Z,80960
2016-05-07T11:12:19.772Z,77920
2016-05-07T11:13:19.930Z,76896
2016-05-07T11:14:19.918Z,80256
2016-05-07T11:15:19.936Z,85280
2016-05-07T11:16:19.938Z,67168
2016-05-07T11:17:19.957Z,91840
2016-05-07T11:18:19.960Z,93312
2016-05-07T11:19:19.963Z,91232
2016-05-07T11:20:19.949Z,88768
2016-05-07T11:21:19.812Z,87936
2016-05-07T11:22:20.126Z,85568
2016-05-07T11:23:20.332Z,83200
2016-05-07T11:24:19.835Z,79968
2016-05-07T11:25:20.010Z,81632
2016-05-07T11:26:19.997Z,71936
2016-05-07T11:27:20.015Z,40704
2016-05-07T11:28:20.018Z,18176
2016-05-07T11:29:20.020Z,76704
2016-05-07T11:30:20.023Z,54720
2016-05-07T11:31:20.042Z,83744
2016-05-07T11:32:20.044Z,70784
2016-05-07T11:33:20.048Z,90912
2016-05-07T11:34:20.065Z,92160
2016-05-07T11:35:20.053Z,91392
2016-05-07T11:36:20.055Z,92672
2016-05-07T11:37:19.901Z,94656
2016-05-07T11:38:20.076Z,95552
2016-05-07T11:39:20.078Z,94432
2016-05-07T11:40:20.097Z,93664
2016-05-07T11:41:20.115Z,90592
2016-05-07T11:42:21.009Z,88512
2016-05-07T11:43:20.105Z,86272
2016-05-07T11:44:19.951Z,86944
2016-05-07T11:45:20.111Z,87808
2016-05-07T11:46:20.144Z,88768
2016-05-07T11:47:20.132Z,90912
2016-05-07T11:48:20.149Z,92064
2016-05-07T11:49:20.137Z,94400
2016-05-07T11:50:20.171Z,94368
2016-05-07T11:51:20.158Z,92544
2016-05-07T11:52:20.176Z,90592
2016-05-07T11:53:20.179Z,88960
2016-05-07T11:54:20.010Z,87616
2016-05-07T11:55:20.184Z,81856
2016-05-07T11:56:20.187Z,78112
2016-05-07T11:57:20.455Z,76416
2016-05-07T11:58:20.209Z,75904
2016-05-07T11:59:20.054Z,77504
2016-05-07T12:00:20.214Z,79968
2016-05-07T12:01:20.262Z,83744
2016-05-07T12:02:20.250Z,84448
2016-05-07T12:03:20.237Z,83456
2016-05-07T12:04:20.083Z,82208
2016-05-07T12:05:20.273Z,80256
2016-05-07T12:06:20.261Z,78496
2016-05-07T12:07:20.264Z,77088
2016-05-07T12:08:20.141Z,78560
2016-05-07T12:09:20.113Z,81824
2016-05-07T12:10:20.506Z,86080
2016-05-07T12:11:20.305Z,87072
2016-05-07T12:12:20.308Z,87744
2016-05-07T12:13:20.295Z,86464
2016-05-07T12:14:20.313Z,80832
2016-05-07T12:15:20.316Z,72032
2016-05-07T12:16:20.319Z,64352
2016-05-07T12:17:20.337Z,62784
2016-05-07T12:18:20.340Z,64832
2016-05-07T12:19:20.358Z,70528
2016-05-07T12:20:20.346Z,82112
2016-05-07T12:21:20.363Z,95008
2016-05-07T12:22:20.382Z,105120
2016-05-07T12:23:20.416Z,109216
2016-05-07T12:24:20.387Z,108160
2016-05-07T12:25:20.374Z,102816
2016-05-07T12:26:20.392Z,95104
2016-05-07T12:27:20.912Z,88544
2016-05-07T12:28:20.414Z,82400
2016-05-07T12:29:20.432Z,79104
2016-05-07T12:30:20.262Z,79328
2016-05-07T12:31:20.422Z,82368
2016-05-07T12:32:20.425Z,84896
2016-05-07T12:33:20.442Z,88960
2016-05-07T12:34:20.306Z,90592
2016-05-07T12:35:20.447Z,87936
2016-05-07T12:36:20.467Z,82720
2016-05-07T12:37:20.297Z,76288
2016-05-07T12:38:20.316Z,71936
2016-05-07T12:39:20.318Z,69792
2016-05-07T12:40:20.322Z,70656
2016-05-07T12:41:20.339Z,74880
2016-05-07T12:42:20.670Z,80576
2016-05-07T12:43:20.579Z,86752
2016-05-07T12:44:20.207Z,88736
2016-05-07T12:45:20.522Z,88960
2016-05-07T12:46:20.525Z,87168
2016-05-07T12:47:20.511Z,81952
2016-05-07T12:48:20.546Z,76704
2016-05-07T12:49:20.549Z,72832
2016-05-07T12:50:20.238Z,71936
2016-05-07T12:51:20.554Z,73568
2016-05-07T12:52:20.415Z,75360
2016-05-07T12:53:20.559Z,79008
2016-05-07T12:54:20.420Z,80736
2016-05-07T12:55:20.580Z,80544
2016-05-07T12:56:20.426Z,81472
2016-05-07T12:57:22.117Z,79424
2016-05-07T12:58:20.479Z,77664
2016-05-07T12:59:20.623Z,78720
2016-05-07T13:00:20.609Z,81760
2016-05-07T13:01:20.643Z,86528
2016-05-07T13:02:20.474Z,90304
2016-05-07T13:03:20.633Z,91200
2016-05-07T13:04:20.839Z,92448
2016-05-07T13:05:20.653Z,93312
2016-05-07T13:06:20.656Z,94784
2016-05-07T13:07:20.659Z,95872
2016-05-07T13:08:20.661Z,97696
2016-05-07T13:09:20.680Z,98368
2016-05-07T13:10:20.542Z,97920
2016-05-07T13:11:20.686Z,94976
2016-05-07T13:12:21.625Z,92512
2016-05-07T13:13:20.706Z,91328
2016-05-07T13:14:20.693Z,90432
2016-05-07T13:15:20.712Z,91872
2016-05-07T13:16:20.714Z,95040
2016-05-07T13:17:20.560Z,98112
2016-05-07T13:18:20.719Z,98528
2016-05-07T13:19:20.754Z,96288
2016-05-07T13:20:20.429Z,91424
2016-05-07T13:21:20.743Z,85600
2016-05-07T13:22:20.746Z,79712
2016-05-07T13:23:20.593Z,77344
2016-05-07T13:24:20.751Z,78656
2016-05-07T13:25:20.770Z,83424
2016-05-07T13:26:20.616Z,90112
2016-05-07T13:27:20.557Z,93888
2016-05-07T13:28:20.621Z,96928
2016-05-07T13:29:20.796Z,96960
2016-05-07T13:30:20.845Z,92576